Time;durP1;ratioP1;P1;durP2;ratioP2;P2;SDS_P1;SDS_P2;PMS_P1;PMS_P2;Temp;Humidity;BMP_temperature;BMP_pressure;BME280_temperature;BME280_humidity;BME280_pressure;Samples;Min_cycle;Max_cycle;Signal;HPM_P1;HPM_P2
2023/07/26 00:00:37;;;;;;;7.88;3.70;;;;;;;14.47;100.00;100050.19;5070166;28;20035;-82
2023/07/26 00:03:03;;;;;;;12.45;3.40;;;;;;;14.49;100.00;100042.88;5069005;28;20043;-82
2023/07/26 00:05:30;;;;;;;6.18;3.33;;;;;;;14.55;100.00;100046.63;5096216;28;20028;-82
2023/07/26 00:07:55;;;;;;;4.93;3.22;;;;;;;14.58;100.00;100046.28;5101655;28;20461;-82
2023/07/26 00:10:21;;;;;;;8.90;2.97;;;;;;;14.57;100.00;100047.28;5067721;28;20024;-82
2023/07/26 00:12:47;;;;;;;6.60;3.17;;;;;;;14.56;100.00;100040.31;5055193;28;20040;-82
2023/07/26 00:15:13;;;;;;;5.20;2.95;;;;;;;14.56;100.00;100045.63;5101018;27;20030;-82
2023/07/26 00:17:38;;;;;;;9.40;3.15;;;;;;;14.55;100.00;100039.50;5061777;28;20052;-82
2023/07/26 00:20:05;;;;;;;5.50;2.67;;;;;;;14.56;100.00;100040.31;5074283;28;20597;-83
2023/07/26 00:22:31;;;;;;;6.45;3.67;;;;;;;14.56;100.00;100043.78;5081233;28;20346;-82
2023/07/26 00:24:59;;;;;;;9.38;3.15;;;;;;;14.58;100.00;100054.25;5091567;28;20035;-82
2023/07/26 00:27:25;;;;;;;4.82;3.17;;;;;;;14.56;100.00;100046.47;5086947;28;20528;-82
2023/07/26 00:29:51;;;;;;;6.90;3.00;;;;;;;14.55;100.00;100038.66;5067851;28;20036;-82
2023/07/26 00:32:17;;;;;;;35.78;4.25;;;;;;;14.52;100.00;100045.97;5088270;28;20037;-82
2023/07/26 00:34:42;;;;;;;4.75;3.05;;;;;;;14.49;100.00;100033.06;5066164;28;20541;-82
2023/07/26 00:37:08;;;;;;;6.00;3.28;;;;;;;14.48;100.00;100043.88;5081790;28;20028;-82
2023/07/26 00:39:34;;;;;;;4.72;2.83;;;;;;;14.44;100.00;100045.25;5086461;28;20054;-82
2023/07/26 00:42:00;;;;;;;5.38;2.78;;;;;;;14.37;100.00;100037.16;5089962;27;20473;-82
2023/07/26 00:44:26;;;;;;;7.88;2.90;;;;;;;14.34;100.00;100035.69;5076458;28;20477;-83
2023/07/26 00:46:54;;;;;;;7.32;3.65;;;;;;;14.34;100.00;100045.50;5089505;28;20079;-82
2023/07/26 00:49:20;;;;;;;3.83;3.10;;;;;;;14.31;100.00;100038.72;5091831;28;20527;-82
2023/07/26 00:51:47;;;;;;;4.93;2.53;;;;;;;14.26;100.00;100027.78;5104570;28;20089;-82
2023/07/26 00:54:13;;;;;;;7.75;2.72;;;;;;;14.21;100.00;100030.13;5089132;27;20039;-83
2023/07/26 00:56:39;;;;;;;5.97;3.20;;;;;;;14.15;100.00;100031.69;5090879;28;20036;-83
2023/07/26 00:59:04;;;;;;;6.38;2.97;;;;;;;14.12;100.00;100024.06;5072894;28;20069;-82
2023/07/26 01:01:31;;;;;;;6.32;2.42;;;;;;;14.07;100.00;100023.78;5073513;28;20027;-82
2023/07/26 01:03:56;;;;;;;5.55;2.70;;;;;;;14.01;100.00;100012.84;5077863;28;20111;-82
2023/07/26 01:06:41;;;;;;;5.15;3.15;;;;;;;13.99;100.00;100017.53;5075104;28;20526;-82
2023/07/26 01:09:19;;;;;;;3.45;2.25;;;;;;;13.94;100.00;100019.03;5067841;27;20118;-82
2023/07/26 01:12:03;;;;;;;5.78;2.80;;;;;;;13.93;100.00;100030.69;5092822;28;20032;-82
2023/07/26 01:14:47;;;;;;;5.18;2.33;;;;;;;13.94;100.00;100013.72;5087746;28;20063;-83
2023/07/26 01:17:13;;;;;;;5.82;2.40;;;;;;;13.94;100.00;100011.91;5087336;27;20089;-82
2023/07/26 01:19:39;;;;;;;6.65;3.13;;;;;;;13.97;100.00;100008.91;5090258;27;20028;-82
2023/07/26 01:22:04;;;;;;;6.50;2.80;;;;;;;13.97;100.00;100008.06;5094062;28;20039;-82
2023/07/26 01:24:31;;;;;;;8.75;2.83;;;;;;;13.96;100.00;100003.75;5070366;28;20106;-82
2023/07/26 01:26:57;;;;;;;5.78;2.50;;;;;;;13.97;100.00;100000.09;5083042;28;20043;-82
2023/07/26 01:29:23;;;;;;;3.63;2.17;;;;;;;13.99;100.00;100006.06;5105040;27;20040;-82
2023/07/26 01:31:50;;;;;;;4.43;2.72;;;;;;;13.98;100.00;100002.56;5083403;28;20055;-82
2023/07/26 01:34:16;;;;;;;5.45;2.20;;;;;;;13.96;100.00;99996.63;5089586;28;20092;-82
2023/07/26 01:36:42;;;;;;;4.28;2.42;;;;;;;13.93;100.00;99990.84;5082981;28;20119;-82
2023/07/26 01:39:09;;;;;;;4.88;2.30;;;;;;;13.93;100.00;99986.34;5090755;28;20032;-82
2023/07/26 01:41:35;;;;;;;9.55;2.38;;;;;;;13.93;100.00;99975.72;5070252;28;20036;-82
2023/07/26 01:44:01;;;;;;;6.57;2.75;;;;;;;13.88;100.00;99968.28;5099024;27;20067;-82
2023/07/26 01:46:29;;;;;;;6.68;2.58;;;;;;;13.79;100.00;99974.69;5072241;28;20035;-82
2023/07/26 01:48:57;;;;;;;11.77;2.78;;;;;;;13.72;100.00;99973.72;5089510;28;20050;-82
2023/07/26 01:51:23;;;;;;;7.47;2.75;;;;;;;13.67;100.00;99981.38;5061090;28;20060;-82
2023/07/26 01:53:48;;;;;;;6.68;2.78;;;;;;;13.59;100.00;99979.59;5073128;28;20028;-82
2023/07/26 01:56:16;;;;;;;5.65;2.30;;;;;;;13.51;100.00;99980.47;5069055;28;20374;-82
2023/07/26 01:58:41;;;;;;;9.05;3.00;;;;;;;13.44;100.00;99966.22;5074459;28;20035;-82
2023/07/26 02:01:07;;;;;;;6.40;2.97;;;;;;;13.37;100.00;99968.75;5082117;28;20510;-82
2023/07/26 02:03:33;;;;;;;8.10;2.70;;;;;;;13.33;100.00;99964.81;5072519;28;20051;-82
2023/07/26 02:05:59;;;;;;;13.30;2.60;;;;;;;13.33;100.00;99970.13;5090153;28;20032;-82
2023/07/26 02:08:24;;;;;;;15.02;3.15;;;;;;;13.34;100.00;99971.75;5091901;27;20031;-82
2023/07/26 02:10:50;;;;;;;12.82;2.20;;;;;;;13.37;100.00;99966.94;5083851;28;20084;-82
2023/07/26 02:13:16;;;;;;;7.07;2.28;;;;;;;13.43;100.00;99970.72;5086225;28;20028;-82
2023/07/26 02:15:43;;;;;;;6.07;2.70;;;;;;;13.44;100.00;99960.94;5090694;28;20046;-82
2023/07/26 02:18:09;;;;;;;5.88;2.50;;;;;;;13.42;100.00;99955.78;5075611;28;20047;-82
2023/07/26 02:20:35;;;;;;;3.75;2.47;;;;;;;13.38;100.00;99950.00;5087690;28;20119;-82
2023/07/26 02:23:01;;;;;;;6.15;2.80;;;;;;;13.34;100.00;99948.72;5085472;28;20032;-82
2023/07/26 02:25:27;;;;;;;6.97;2.40;;;;;;;13.24;100.00;99946.25;5075221;27;20027;-82
2023/07/26 02:27:57;;;;;;;5.45;2.92;;;;;;;13.22;100.00;99937.66;5075033;28;20402;-82
2023/07/26 02:30:23;;;;;;;5.53;2.15;;;;;;;13.20;100.00;99941.47;5084869;28;20044;-82
2023/07/26 02:32:49;;;;;;;6.13;2.60;;;;;;;13.19;100.00;99932.69;5072719;28;20112;-82
2023/07/26 02:35:15;;;;;;;4.30;2.78;;;;;;;13.14;100.00;99935.88;5085269;28;20089;-82
2023/07/26 02:37:40;;;;;;;5.60;3.03;;;;;;;13.10;100.00;99928.44;5084447;28;20039;-82
2023/07/26 02:40:06;;;;;;;5.55;3.28;;;;;;;13.07;100.00;99926.97;5088829;28;20028;-82
2023/07/26 02:42:32;;;;;;;9.07;3.50;;;;;;;13.09;100.00;99926.78;5101415;28;20511;-82
2023/07/26 02:44:58;;;;;;;8.10;3.00;;;;;;;13.12;100.00;99923.78;5089082;28;20159;-82
2023/07/26 02:47:24;;;;;;;5.18;3.10;;;;;;;13.17;100.00;99923.25;5085667;28;20031;-82
2023/07/26 02:49:50;;;;;;;8.30;3.20;;;;;;;13.16;100.00;99927.72;5080431;28;20112;-82
2023/07/26 02:52:15;;;;;;;7.28;2.90;;;;;;;13.09;100.00;99918.81;5068512;28;20039;-82
2023/07/26 02:54:41;;;;;;;5.70;3.13;;;;;;;13.11;100.00;99930.91;5056174;27;20039;-82
2023/07/26 02:57:07;;;;;;;4.70;2.58;;;;;;;13.12;100.00;99932.53;5071745;28;20031;-82
2023/07/26 02:59:33;;;;;;;5.18;2.80;;;;;;;13.14;100.00;99933.22;5100675;28;20020;-82
2023/07/26 03:01:58;;;;;;;3.80;2.83;;;;;;;13.15;100.00;99928.75;5081997;28;20032;-82
2023/07/26 03:04:24;;;;;;;4.72;2.72;;;;;;;13.09;100.00;99932.91;5083262;28;20034;-82
2023/07/26 03:06:51;;;;;;;9.57;3.05;;;;;;;13.10;100.00;99929.25;5104601;28;20477;-82
2023/07/26 03:09:17;;;;;;;6.68;3.10;;;;;;;13.12;100.00;99927.25;5087052;28;20084;-82
2023/07/26 03:11:44;;;;;;;7.72;3.28;;;;;;;13.09;100.00;99930.25;5066995;28;20040;-82
2023/07/26 03:14:10;;;;;;;9.30;4.13;;;;;;;13.11;100.00;99922.94;5070706;28;20096;-82
2023/07/26 03:16:35;;;;;;;6.07;3.05;;;;;;;13.11;100.00;99917.63;5078398;28;20039;-82
2023/07/26 03:19:01;;;;;;;4.82;3.15;;;;;;;13.09;100.00;99916.97;5086506;28;20039;-82
2023/07/26 03:21:27;;;;;;;5.43;2.53;;;;;;;13.09;100.00;99914.31;5054744;28;20489;-82
2023/07/26 03:23:52;;;;;;;9.40;3.78;;;;;;;13.09;100.00;99913.53;5083727;28;20039;-82
2023/07/26 03:26:18;;;;;;;6.28;3.05;;;;;;;13.08;100.00;99910.03;5089628;28;20031;-82
2023/07/26 03:28:44;;;;;;;9.77;3.60;;;;;;;13.09;100.00;99902.91;5081087;28;20119;-82
2023/07/26 03:31:10;;;;;;;8.02;3.25;;;;;;;13.09;100.00;99895.75;5081092;28;20351;-82
2023/07/26 03:33:36;;;;;;;6.40;3.33;;;;;;;13.06;100.00;99896.09;5063267;28;20055;-82
2023/07/26 03:36:02;;;;;;;6.95;2.75;;;;;;;13.08;100.00;99893.28;5069418;28;20042;-82
2023/07/26 03:38:27;;;;;;;6.30;2.70;;;;;;;13.09;100.00;99887.78;5103754;28;20032;-82
2023/07/26 03:40:53;;;;;;;4.60;2.60;;;;;;;13.11;100.00;99885.78;5089627;28;20088;-82
2023/07/26 03:43:19;;;;;;;5.97;2.90;;;;;;;13.08;100.00;99885.31;5082564;28;20126;-82
2023/07/26 03:45:44;;;;;;;6.30;2.70;;;;;;;13.08;100.00;99877.34;5085117;28;20405;-82
2023/07/26 03:48:10;;;;;;;4.70;2.90;;;;;;;13.13;100.00;99881.16;5084780;28;20035;-82
2023/07/26 03:50:36;;;;;;;6.75;3.10;;;;;;;13.15;100.00;99873.81;5088412;28;20039;-82
2023/07/26 03:53:01;;;;;;;5.90;3.45;;;;;;;13.14;100.00;99874.84;5072684;28;20494;-82
2023/07/26 03:55:27;;;;;;;4.68;2.92;;;;;;;13.12;100.00;99860.91;5105204;27;20077;-82
2023/07/26 03:57:53;;;;;;;5.20;3.17;;;;;;;13.12;100.00;99868.06;5088667;28;20039;-82
2023/07/26 04:00:18;;;;;;;10.18;2.75;;;;;;;13.05;100.00;99859.13;5087678;28;20109;-82
2023/07/26 04:02:44;;;;;;;3.35;2.83;;;;;;;13.05;100.00;99859.13;5102064;28;20031;-81
2023/07/26 04:05:10;;;;;;;8.70;3.08;;;;;;;13.01;100.00;99853.38;5070376;28;20435;-82
2023/07/26 04:07:38;;;;;;;8.98;3.22;;;;;;;13.03;100.00;99851.34;5088379;28;20036;-82
2023/07/26 04:10:04;;;;;;;5.20;2.92;;;;;;;13.11;100.00;99845.16;5081048;28;20038;-82
2023/07/26 04:12:30;;;;;;;7.80;3.55;;;;;;;13.15;100.00;99849.13;5084020;28;20046;-82
2023/07/26 04:14:55;;;;;;;7.68;3.55;;;;;;;13.14;100.00;99847.47;5068671;28;20035;-82
2023/07/26 04:17:21;;;;;;;7.80;3.03;;;;;;;13.14;100.00;99850.13;5088439;28;20176;-82
2023/07/26 04:19:47;;;;;;;4.95;2.90;;;;;;;13.13;100.00;99844.00;5070276;28;20039;-82
2023/07/26 04:22:13;;;;;;;9.73;3.67;;;;;;;13.17;100.00;99849.75;5080825;28;20062;-82
2023/07/26 04:24:42;;;;;;;5.88;3.63;;;;;;;13.21;100.00;99843.13;5068473;28;20031;-82
2023/07/26 04:27:08;;;;;;;6.63;2.80;;;;;;;13.26;100.00;99851.38;5096560;28;20507;-82
2023/07/26 04:29:34;;;;;;;10.88;3.92;;;;;;;13.30;100.00;99840.41;5084915;28;20157;-82
2023/07/26 04:31:59;;;;;;;10.55;4.03;;;;;;;13.31;100.00;99832.28;5067140;28;20083;-82
2023/07/26 04:34:25;;;;;;;6.55;3.67;;;;;;;13.31;100.00;99831.44;5064690;28;20043;-82
2023/07/26 04:36:51;;;;;;;12.52;3.33;;;;;;;13.32;100.00;99844.53;5079993;28;20478;-82
2023/07/26 04:39:17;;;;;;;4.28;3.20;;;;;;;13.28;100.00;99830.78;5051491;28;20028;-82
2023/07/26 04:41:43;;;;;;;7.25;3.72;;;;;;;13.29;100.00;99831.63;5090883;28;20497;-81
2023/07/26 04:44:09;;;;;;;7.57;3.85;;;;;;;13.30;100.00;99835.91;5084422;28;20023;-82
2023/07/26 04:46:35;;;;;;;8.25;4.22;;;;;;;13.31;100.00;99819.00;5064334;28;20130;-82
2023/07/26 04:49:00;;;;;;;9.43;3.42;;;;;;;13.29;100.00;99813.03;5067395;28;20478;-82
2023/07/26 04:51:26;;;;;;;5.97;3.30;;;;;;;13.26;100.00;99813.41;5105420;28;21760;-81
2023/07/26 04:53:52;;;;;;;5.05;3.22;;;;;;;13.25;100.00;99811.75;5070293;28;20046;-82
2023/07/26 04:56:18;;;;;;;9.90;3.88;;;;;;;13.26;100.00;99808.09;5085582;28;20039;-81
2023/07/26 04:58:44;;;;;;;4.55;2.92;;;;;;;13.26;100.00;99810.75;5083183;28;20464;-81
2023/07/26 05:01:09;;;;;;;5.43;3.40;;;;;;;13.24;100.00;99813.56;5050622;28;20681;-82
2023/07/26 05:03:37;;;;;;;5.93;3.17;;;;;;;13.22;100.00;99814.75;5071775;28;20035;-82
2023/07/26 05:06:02;;;;;;;7.28;3.30;;;;;;;13.21;100.00;99803.31;5069624;28;20696;-82
2023/07/26 05:08:28;;;;;;;5.85;3.30;;;;;;;13.24;100.00;99808.25;5085449;28;20034;-81
2023/07/26 05:10:54;;;;;;;6.07;2.42;;;;;;;13.28;100.00;99809.53;5083382;28;20591;-81
2023/07/26 05:13:21;;;;;;;6.95;3.47;;;;;;;13.30;100.00;99803.25;5087203;28;20175;-82
2023/07/26 05:15:47;;;;;;;6.72;2.63;;;;;;;13.32;100.00;99798.56;5106644;28;20156;-82
2023/07/26 05:18:15;;;;;;;6.80;2.65;;;;;;;13.30;100.00;99796.09;5074436;28;20077;-82
2023/07/26 05:20:42;;;;;;;6.72;2.85;;;;;;;13.28;100.00;99795.47;5076778;28;20111;-82
2023/07/26 05:23:08;;;;;;;10.90;3.28;;;;;;;13.30;100.00;99784.69;5088423;28;20034;-82
2023/07/26 05:25:34;;;;;;;6.00;2.58;;;;;;;13.26;100.00;99785.03;5084884;28;20084;-82
2023/07/26 05:28:00;;;;;;;4.82;2.42;;;;;;;13.27;100.00;99783.19;5090800;28;20051;-82
2023/07/26 05:30:26;;;;;;;8.80;2.60;;;;;;;13.28;100.00;99784.84;5080377;28;20551;-82
2023/07/26 05:32:52;;;;;;;14.25;2.92;;;;;;;13.31;100.00;99788.97;5074593;28;20600;-82
2023/07/26 05:35:17;;;;;;;9.90;2.63;;;;;;;13.33;100.00;99777.16;5072246;28;20112;-82
2023/07/26 05:37:43;;;;;;;5.68;2.53;;;;;;;13.34;100.00;99780.66;5097439;28;20544;-82
2023/07/26 05:40:09;;;;;;;10.10;2.67;;;;;;;13.36;100.00;99776.81;5091249;28;20054;-82
2023/07/26 05:42:36;;;;;;;9.90;3.03;;;;;;;13.40;100.00;99771.97;5107910;27;20035;-82
2023/07/26 05:45:02;;;;;;;8.70;2.42;;;;;;;13.43;100.00;99782.22;5088135;28;20093;-82
2023/07/26 05:47:30;;;;;;;5.88;2.58;;;;;;;13.46;100.00;99776.56;5081048;28;20031;-82
2023/07/26 05:49:56;;;;;;;5.65;2.58;;;;;;;13.48;100.00;99777.22;5109789;27;20034;-82
2023/07/26 05:52:22;;;;;;;6.40;2.90;;;;;;;13.51;100.00;99763.59;5090921;28;20032;-82
2023/07/26 05:54:48;;;;;;;9.98;3.13;;;;;;;13.54;100.00;99772.22;5108934;28;20023;-82
2023/07/26 05:57:13;;;;;;;7.53;3.00;;;;;;;13.57;100.00;99769.22;5086222;28;20032;-82
2023/07/26 05:59:39;;;;;;;6.57;2.63;;;;;;;13.60;100.00;99758.22;5087223;28;20039;-82
2023/07/26 06:02:05;;;;;;;9.20;2.90;;;;;;;13.66;100.00;99761.97;5001109;28;20128;-82
2023/07/26 06:04:31;;;;;;;7.38;2.90;;;;;;;13.71;100.00;99760.41;5103016;27;20382;-82
2023/07/26 06:06:57;;;;;;;5.80;2.63;;;;;;;13.73;100.00;99757.56;5057938;28;20473;-82
2023/07/26 06:09:25;;;;;;;17.10;3.35;;;;;;;13.77;100.00;99759.72;5069526;28;20392;-82
2023/07/26 06:11:51;;;;;;;9.30;3.25;;;;;;;13.81;100.00;99756.69;5104361;27;20059;-82
2023/07/26 06:14:18;;;;;;;11.05;3.05;;;;;;;13.84;100.00;99748.34;5073311;28;20584;-83
2023/07/26 06:16:44;;;;;;;9.13;3.10;;;;;;;13.86;100.00;99736.53;5085582;28;20036;-82
2023/07/26 06:19:09;;;;;;;7.57;3.08;;;;;;;13.93;100.00;99733.13;5051371;28;20056;-82
2023/07/26 06:21:35;;;;;;;8.27;3.30;;;;;;;13.95;100.00;99733.78;5040073;28;20040;-82
2023/07/26 06:24:01;;;;;;;9.63;2.90;;;;;;;14.01;100.00;99733.84;5066415;28;20036;-82
2023/07/26 06:26:26;;;;;;;7.35;2.95;;;;;;;14.02;100.00;99740.81;5054625;28;20037;-82
2023/07/26 06:28:52;;;;;;;7.75;3.17;;;;;;;14.09;100.00;99729.47;5052176;28;20036;-82
2023/07/26 06:31:18;;;;;;;7.32;2.90;;;;;;;14.11;100.00;99738.06;5042265;28;20090;-82
2023/07/26 06:33:44;;;;;;;7.88;2.83;;;;;;;14.09;100.00;99727.63;5054481;28;20040;-82
2023/07/26 06:36:09;;;;;;;8.32;2.90;;;;;;;14.12;100.00;99727.25;5057677;28;20071;-82
2023/07/26 06:38:35;;;;;;;7.97;3.20;;;;;;;14.17;100.00;99726.69;5037301;28;20032;-82
2023/07/26 06:41:01;;;;;;;10.32;3.50;;;;;;;14.20;100.00;99726.31;5032051;28;20044;-82
2023/07/26 06:43:27;;;;;;;8.95;3.38;;;;;;;14.23;100.00;99728.63;5065133;28;20032;-82
2023/07/26 06:45:53;;;;;;;8.32;3.13;;;;;;;14.20;100.00;99717.53;5052524;28;20048;-82
2023/07/26 06:48:19;;;;;;;5.72;3.35;;;;;;;14.22;100.00;99723.50;5062296;28;20653;-82
2023/07/26 06:50:45;;;;;;;8.38;3.35;;;;;;;14.24;100.00;99722.28;5061878;28;20121;-83
2023/07/26 06:53:11;;;;;;;8.18;3.50;;;;;;;14.29;100.00;99711.09;5044372;28;20025;-82
2023/07/26 06:55:38;;;;;;;10.95;3.40;;;;;;;14.28;100.00;99712.09;5064298;28;20514;-82
2023/07/26 06:58:05;;;;;;;9.80;3.65;;;;;;;14.26;100.00;99709.63;5058886;28;20402;-82
2023/07/26 07:00:31;;;;;;;9.35;3.58;;;;;;;14.28;100.00;99709.44;5062731;28;20036;-82
2023/07/26 07:02:59;;;;;;;6.80;3.08;;;;;;;14.30;100.00;99706.59;5042123;28;20028;-82
2023/07/26 07:05:27;;;;;;;6.22;3.60;;;;;;;14.34;100.00;99710.53;5079574;28;20111;-82
2023/07/26 07:07:53;;;;;;;4.90;3.25;;;;;;;14.33;100.00;99704.41;5075165;28;20029;-82
2023/07/26 07:10:20;;;;;;;5.95;3.40;;;;;;;14.36;100.00;99704.03;5038767;28;20079;-82
2023/07/26 07:12:46;;;;;;;5.85;3.75;;;;;;;14.41;100.00;99700.81;5058425;28;20163;-82
2023/07/26 07:15:13;;;;;;;8.65;2.90;;;;;;;14.48;100.00;99699.03;5037219;28;20115;-82
2023/07/26 07:17:38;;;;;;;11.32;3.53;;;;;;;14.50;100.00;99702.31;5062272;28;20112;-81
2023/07/26 07:20:07;;;;;;;5.55;3.17;;;;;;;14.57;100.00;99704.22;5099149;28;20664;-81
2023/07/26 07:22:33;;;;;;;4.43;2.97;;;;;;;14.59;100.00;99688.88;5078497;28;20040;-82
2023/07/26 07:24:59;;;;;;;7.90;3.03;;;;;;;14.62;100.00;99691.19;5087662;28;20094;-82
2023/07/26 07:27:25;;;;;;;7.82;3.00;;;;;;;14.67;100.00;99685.31;5083395;28;20043;-81
2023/07/26 07:29:51;;;;;;;6.20;2.92;;;;;;;14.71;100.00;99675.91;5080081;28;20020;-82
2023/07/26 07:32:18;;;;;;;6.85;2.60;;;;;;;14.79;100.00;99680.28;5078828;28;20024;-81
2023/07/26 07:34:44;;;;;;;6.15;2.88;;;;;;;14.82;100.00;99683.44;5075357;28;20034;-81
2023/07/26 07:37:10;;;;;;;8.23;2.40;;;;;;;14.82;100.00;99666.63;5066427;28;20032;-81
2023/07/26 07:39:36;;;;;;;7.75;3.42;;;;;;;14.86;100.00;99666.06;5083759;28;20039;-81
2023/07/26 07:42:01;;;;;;;5.47;2.40;;;;;;;14.88;100.00;99664.03;5061980;28;20039;-81
2023/07/26 07:44:28;;;;;;;3.45;2.00;;;;;;;14.92;100.00;99658.31;5078861;28;20031;-81
2023/07/26 07:46:54;;;;;;;3.50;2.53;;;;;;;14.93;100.00;99659.97;5059785;28;20112;-81
2023/07/26 07:49:20;;;;;;;2.95;2.15;;;;;;;14.94;100.00;99651.78;5079737;28;20806;-81
2023/07/26 07:51:45;;;;;;;5.55;2.20;;;;;;;14.93;100.00;99647.50;5086456;28;20031;-81
2023/07/26 07:54:11;;;;;;;2.22;2.00;;;;;;;14.95;100.00;99645.47;5066731;28;20036;-80
2023/07/26 07:56:38;;;;;;;3.95;2.10;;;;;;;15.01;100.00;99649.19;5085273;28;20032;-81
2023/07/26 07:59:03;;;;;;;2.47;2.10;;;;;;;15.03;100.00;99649.00;5057778;28;20036;-81
2023/07/26 08:01:30;;;;;;;3.47;2.28;;;;;;;15.06;100.00;99646.78;5081990;28;20386;-81
2023/07/26 08:03:59;;;;;;;6.47;2.33;;;;;;;15.11;100.00;99640.88;5088010;28;20062;-81
2023/07/26 08:06:26;;;;;;;6.90;2.25;;;;;;;15.09;100.00;99638.41;5086314;28;20036;-81
2023/07/26 08:08:52;;;;;;;2.63;1.67;;;;;;;15.09;100.00;99633.06;5087109;28;20028;-81
2023/07/26 08:11:18;;;;;;;3.55;1.92;;;;;;;15.09;100.00;99633.06;5085151;28;20028;-81
2023/07/26 08:13:44;;;;;;;2.42;1.67;;;;;;;15.11;100.00;99640.88;5067016;28;20043;-80
2023/07/26 08:16:10;;;;;;;2.63;1.80;;;;;;;15.11;100.00;99636.34;5072185;28;20047;-81
2023/07/26 08:18:37;;;;;;;2.97;1.70;;;;;;;15.13;100.00;99636.16;5050265;28;20423;-81
2023/07/26 08:21:03;;;;;;;1.92;1.70;;;;;;;15.15;100.00;99631.47;5060947;28;20036;-81
2023/07/26 08:23:32;;;;;;;2.53;1.60;;;;;;;15.17;100.00;99625.94;5067457;28;20032;-80
2023/07/26 08:26:06;;;;;;;2.45;1.60;;;;;;;15.21;100.00;99632.53;5081533;28;20028;-81
2023/07/26 08:28:32;;;;;;;3.13;1.48;;;;;;;15.22;100.00;99631.50;5076615;28;20486;-80
2023/07/26 08:30:59;;;;;;;5.63;1.40;;;;;;;15.24;100.00;99632.16;5061332;28;20032;-81
2023/07/26 08:33:24;;;;;;;1.45;1.00;;;;;;;15.27;100.00;99623.78;5084538;28;20067;-81
2023/07/26 08:35:50;;;;;;;2.00;1.10;;;;;;;15.28;100.00;99625.41;5064540;28;20059;-81
2023/07/26 08:38:17;;;;;;;3.15;1.10;;;;;;;15.30;100.00;99622.53;5050241;28;20112;-81
2023/07/26 08:40:48;;;;;;;1.27;1.17;;;;;;;15.37;100.00;99620.72;5080838;28;20059;-81
2023/07/26 08:43:16;;;;;;;1.63;1.00;;;;;;;15.38;100.00;99617.06;5073619;28;20033;-81
2023/07/26 08:45:43;;;;;;;2.33;1.20;;;;;;;15.39;100.00;99610.72;5077936;28;20035;-81
2023/07/26 08:48:10;;;;;;;3.22;1.20;;;;;;;15.41;100.00;99606.03;5064604;28;20423;-81
2023/07/26 08:50:39;;;;;;;2.85;1.00;;;;;;;15.50;100.00;99612.81;5055523;28;20536;-81
2023/07/26 08:53:06;;;;;;;2.17;0.82;;;;;;;15.54;100.00;99613.25;5077507;28;20097;-81
2023/07/26 08:55:32;;;;;;;1.23;0.90;;;;;;;15.57;100.00;99614.69;5067497;28;20032;-82
2023/07/26 08:57:59;;;;;;;1.10;0.80;;;;;;;15.58;100.00;99613.66;5071459;28;20082;-81
2023/07/26 09:00:26;;;;;;;3.00;0.80;;;;;;;15.59;100.00;99608.13;5084709;28;20032;-81
2023/07/26 09:02:57;;;;;;;1.75;1.00;;;;;;;15.63;100.00;99605.91;5053165;28;20524;-81
2023/07/26 09:05:23;;;;;;;2.13;0.93;;;;;;;15.62;100.00;99598.94;5081914;28;20036;-81
2023/07/26 09:07:51;;;;;;;2.60;0.93;;;;;;;15.64;100.00;99588.91;5082655;28;20039;-80
2023/07/26 09:10:24;;;;;;;0.90;0.80;;;;;;;15.69;100.00;99597.13;5064947;28;20036;-80
2023/07/26 09:12:50;;;;;;;1.02;0.70;;;;;;;15.71;100.00;99597.75;5064599;28;20418;-80
2023/07/26 09:15:18;;;;;;;2.40;0.70;;;;;;;15.78;100.00;99594.28;5083453;28;20024;-80
2023/07/26 09:17:44;;;;;;;1.48;0.70;;;;;;;15.78;100.00;99595.13;5090036;28;20067;-80
2023/07/26 09:20:19;;;;;;;1.35;0.50;;;;;;;15.84;100.00;99582.81;5089588;28;20473;-81
2023/07/26 09:22:45;;;;;;;0.47;0.47;;;;;;;15.84;100.00;99582.81;5106771;28;20040;-80
2023/07/26 09:25:11;;;;;;;2.80;0.60;;;;;;;15.87;100.00;99585.91;5094108;27;20540;-80
2023/07/26 09:27:53;;;;;;;0.40;0.40;;;;;;;15.92;100.00;99572.00;5082452;28;20708;-80
2023/07/26 09:30:20;;;;;;;0.55;0.32;;;;;;;15.88;100.00;99570.72;5092297;27;20024;-80
2023/07/26 09:32:46;;;;;;;1.35;0.40;;;;;;;15.90;100.00;99571.38;5068232;28;20031;-80
2023/07/26 09:35:12;;;;;;;0.40;0.40;;;;;;;15.91;100.00;99565.00;5071505;28;20119;-81
2023/07/26 09:37:38;;;;;;;0.77;0.30;;;;;;;15.92;100.00;99564.00;5072723;28;20044;-81
2023/07/26 09:40:05;;;;;;;1.85;0.30;;;;;;;15.96;100.00;99559.91;5069739;28;20020;-81
2023/07/26 09:42:43;;;;;;;0.68;0.20;;;;;;;15.98;100.00;99547.22;5087520;28;20062;-81
2023/07/26 09:45:22;;;;;;;0.30;0.30;;;;;;;15.99;100.00;99556.03;5087340;28;20034;-81
2023/07/26 09:47:48;;;;;;;0.52;0.10;;;;;;;15.96;100.00;99549.22;5067289;28;20035;-81
2023/07/26 09:50:27;;;;;;;0.60;0.15;;;;;;;15.97;100.00;99548.22;5056310;28;20453;-81
2023/07/26 09:52:54;;;;;;;0.15;0.15;;;;;;;15.94;100.00;99545.94;5070233;28;20370;-81
2023/07/26 09:55:23;;;;;;;0.30;0.13;;;;;;;16.01;100.00;99537.19;5085349;28;20034;-81
2023/07/26 09:57:51;;;;;;;0.45;0.10;;;;;;;16.04;100.00;99534.94;5085340;28;20035;-81
2023/07/26 10:00:18;;;;;;;0.70;0.20;;;;;;;16.08;100.00;99530.00;5084991;28;20034;-81
2023/07/26 10:02:58;;;;;;;0.25;0.13;;;;;;;16.19;100.00;99523.25;5080593;28;20031;-80
2023/07/26 10:05:33;;;;;;;0.25;0.25;;;;;;;16.23;100.00;99511.97;5082993;28;20052;-81
2023/07/26 10:08:00;;;;;;;0.47;0.25;;;;;;;16.29;100.00;99504.19;5073511;28;20032;-81
2023/07/26 10:10:27;;;;;;;0.10;0.10;;;;;;;16.42;100.00;99503.38;5108043;28;20118;-81
2023/07/26 10:12:57;;;;;;;0.28;0.28;;;;;;;16.55;100.00;99502.50;5085189;28;20068;-81
2023/07/26 10:15:25;;;;;;;0.10;0.10;;;;;;;16.63;100.00;99502.31;5083141;28;20331;-81
2023/07/26 10:17:52;;;;;;;2.15;0.20;;;;;;;16.73;100.00;99501.88;5102230;28;20051;-81
2023/07/26 10:20:19;;;;;;;7.53;0.52;;;;;;;16.77;100.00;99497.75;5084499;28;20028;-81
2023/07/26 10:22:47;;;;;;;1.27;0.20;;;;;;;16.78;100.00;99485.25;5107745;27;20027;-81
2023/07/26 10:25:13;;;;;;;0.68;0.35;;;;;;;16.82;100.00;99487.28;5083625;28;20088;-81
2023/07/26 10:27:42;;;;;;;0.65;0.35;;;;;;;16.81;100.00;99482.97;5081599;28;20044;-81
2023/07/26 10:30:08;;;;;;;1.13;0.50;;;;;;;16.83;100.00;99485.44;5101556;27;20031;-81
2023/07/26 10:32:39;;;;;;;1.95;0.47;;;;;;;16.91;100.00;99487.88;5085504;28;20035;-81
2023/07/26 10:35:05;;;;;;;0.40;0.40;;;;;;;16.88;100.00;99476.81;5069599;28;20032;-81
2023/07/26 10:37:34;;;;;;;0.55;0.40;;;;;;;16.92;100.00;99475.34;5053069;28;20036;-81
2023/07/26 10:40:05;;;;;;;0.52;0.50;;;;;;;16.92;100.00;99472.69;5075277;28;20027;-81
2023/07/26 10:42:31;;;;;;;1.40;0.43;;;;;;;16.95;100.00;99472.25;5084333;28;20031;-81
2023/07/26 10:44:59;;;;;;;1.70;0.60;;;;;;;16.97;100.00;99467.53;5099540;28;20079;-81
2023/07/26 10:47:25;;;;;;;0.60;0.30;;;;;;;17.00;100.00;99467.09;5078060;28;20028;-81
2023/07/26 10:49:53;;;;;;;0.50;0.40;;;;;;;17.05;100.00;99461.13;5085609;28;20067;-81
2023/07/26 10:52:20;;;;;;;0.50;0.32;;;;;;;17.01;100.00;99460.72;5071200;28;20111;-82
2023/07/26 10:54:52;;;;;;;0.30;0.30;;;;;;;17.03;100.00;99456.00;5084625;28;20084;-81
2023/07/26 10:57:28;;;;;;;0.30;0.20;;;;;;;17.04;100.00;99457.63;5069346;28;20200;-81
2023/07/26 11:00:01;;;;;;;;;;;;;;;16.96;100.00;99453.34;5083819;28;20033;-81
2023/07/26 11:02:44;;;;;;;0.20;0.20;;;;;;;17.04;100.00;99451.50;5102248;28;19922;-82
2023/07/26 11:05:16;;;;;;;2.10;0.13;;;;;;;17.04;100.00;99446.97;5100096;28;20377;-81
2023/07/26 11:08:00;;;;;;;0.17;0.17;;;;;;;17.07;100.00;99449.19;5082409;28;20415;-81
2023/07/26 11:10:36;;;;;;;0.50;0.30;;;;;;;17.05;100.00;99448.63;5087728;28;20405;-81
2023/07/26 11:13:16;;;;;;;0.20;0.20;;;;;;;17.08;100.00;99447.41;5081083;28;20048;-81
2023/07/26 11:15:44;;;;;;;0.10;0.10;;;;;;;17.04;100.00;99440.81;5088899;28;20027;-81
2023/07/26 11:18:11;;;;;;;0.22;0.22;;;;;;;17.01;100.00;99428.69;5073793;28;20040;-81
2023/07/26 11:20:39;;;;;;;0.20;0.20;;;;;;;16.99;100.00;99420.91;5045025;28;20194;-81
2023/07/26 11:23:18;;;;;;;0.52;0.20;;;;;;;16.99;100.00;99420.91;5066857;28;20029;-81